< < Back
Terminal Aerodrome Forecast


Current Version              Previous Versions:   1  2  3  4  5  6  7  8  9  

Terminal Aerodrome Forecast

491
FTUS42 KCAE 310500 AAA
TAFAGS
TAF AMD
KAGS 310551Z 3106/0106 VRB04KT P6SM SKC
     FM311600 24007KT P6SM SCT250
     FM311800 26011G17KT P6SM FEW040 SCT120
     FM010300 28008KT P6SM SCT250=

Latest METAR

077
SAUS70 KWBC 310800 RRE
MTRAGS
METAR KAGS 310753Z AUTO 00000KT 8SM CLR 06/05 A3006 RMK AO2 SLP177
T00560050


USA.gov is the U.S. government's official web portal to all federal, state and local government web resources and services.